Impacts TAF Board
For situational awareness. Not to be used for flight planning purposes.
IDs:

KMSY - New Orleans/Armstron, LA, US

Issued at 1851 UTC 13 Aug 2020
Updated at 2027 UTC 13 Aug 2020
Potential Impact None Slight Moderate High
Time<<14/09Z 14/10Z 14/11Z 14/12Z 14/13Z 14/14Z 14/15Z 14/16Z 14/17Z 14/18Z 14/19Z 14/20Z 14/21Z>>
Type PRVL PRVL PRVL PRVL PRVL PRVL PRVL PRVL PRVL PRVL PRVL PRVL PRVL
VIS >6 >6 >6 >6 >6 >6 >6 >6 >6 >6 >6 >6 >6
CIG 250 250 250 250 250 250 35 35 35 35 35 35 35
Cover BKN BKN BKN BKN BKN BKN BKN BKN BKN BKN BKN BKN BKN
FltCat VFR VFR VFR VFR VFR VFR VFR VFR VFR VFR VFR VFR VFR
WX -- -- -- -- -- -- VCSH VCSH VCSH VCSH VCSH VCSH VCSH
WDir 200 200 200 200 200 200 VRB VRB VRB VRB VRB VRB VRB
WSpd 5 5 5 5 5 5 3 3 3 3 3 3 3
WGst -- -- -- -- -- -- -- -- -- -- -- -- --
R01/19
XWnd 0 0 0 0 0 0 VRB VRB VRB VRB VRB VRB VRB
HWnd -5 -5 -5 -5 -5 -5 VRB VRB VRB VRB VRB VRB VRB
R10/28
XWnd -5 -5 -5 -5 -5 -5 VRB VRB VRB VRB VRB VRB VRB
HWnd -0 -0 -0 -0 -0 -0 VRB VRB VRB VRB VRB VRB VRB
Raw TAF
KMSY 131851Z 1319/1424 18008KT P6SM VCTS FEW030CB BKN170
  FM140000 20005KT P6SM SCT030 BKN250
  FM141500 VRB03KT P6SM VCSH FEW020 BKN035


METAR Board
Radar Display
Forecast Discussion
For situational awareness. Not to be used for flight planning purposes.